createdAt,value
2023-05-10T00:00:04.257Z,1009.10
2023-05-10T00:01:04.182Z,1009.09
2023-05-10T00:02:04.271Z,1009.07
2023-05-10T00:03:04.278Z,1009.05
2023-05-10T00:04:04.237Z,1009.06
2023-05-10T00:05:04.191Z,1009.07
2023-05-10T00:06:04.177Z,1009.07
2023-05-10T00:07:04.182Z,1009.06
2023-05-10T00:08:04.179Z,1009.08
2023-05-10T00:09:04.177Z,1009.01
2023-05-10T00:10:04.177Z,1009.04
2023-05-10T00:11:04.191Z,1009.05
2023-05-10T00:12:04.178Z,1009.01
2023-05-10T00:13:04.213Z,1009.03
2023-05-10T00:14:04.179Z,1009.03
2023-05-10T00:15:04.183Z,1008.96
2023-05-10T00:16:04.238Z,1008.99
2023-05-10T00:17:04.179Z,1008.97
2023-05-10T00:18:04.311Z,1008.95
2023-05-10T00:19:04.179Z,1008.95
2023-05-10T00:20:04.177Z,1008.95
2023-05-10T00:21:04.186Z,1008.99
2023-05-10T00:22:04.221Z,1008.91
2023-05-10T00:23:04.177Z,1008.92
2023-05-10T00:24:04.188Z,1008.92
2023-05-10T00:25:04.176Z,1008.92
2023-05-10T00:26:04.192Z,1008.90
2023-05-10T00:27:04.172Z,1008.90
2023-05-10T00:28:04.172Z,1008.88
2023-05-10T00:29:04.180Z,1008.89
2023-05-10T00:30:04.173Z,1008.86
2023-05-10T00:31:04.180Z,1008.80
2023-05-10T00:32:04.272Z,1008.81
2023-05-10T00:33:04.221Z,1008.76
2023-05-10T00:34:04.224Z,1008.76
2023-05-10T00:35:04.175Z,1008.76
2023-05-10T00:36:04.177Z,1008.75
2023-05-10T00:37:04.184Z,1008.72
2023-05-10T00:38:04.181Z,1008.71
2023-05-10T00:39:04.183Z,1008.72
2023-05-10T00:40:04.167Z,1008.73
2023-05-10T00:41:04.183Z,1008.69
2023-05-10T00:42:04.170Z,1008.66
2023-05-10T00:43:04.167Z,1008.65
2023-05-10T00:44:04.184Z,1008.67
2023-05-10T00:45:04.174Z,1008.67
2023-05-10T00:46:04.227Z,1008.60
2023-05-10T00:47:04.170Z,1008.62
2023-05-10T00:48:04.208Z,1008.60
2023-05-10T00:49:04.171Z,1008.58
2023-05-10T00:50:04.189Z,1008.56
2023-05-10T00:51:04.177Z,1008.59
2023-05-10T00:52:04.177Z,1008.57
2023-05-10T00:53:04.174Z,1008.56
2023-05-10T00:54:04.167Z,1008.55
2023-05-10T00:55:04.171Z,1008.56
2023-05-10T00:56:04.171Z,1008.53
2023-05-10T00:57:04.193Z,1008.51
2023-05-10T00:58:04.162Z,1008.48
2023-05-10T00:59:04.174Z,1008.48
2023-05-10T01:00:04.160Z,1008.48
2023-05-10T01:01:04.186Z,1008.51
2023-05-10T01:02:04.198Z,1008.46
2023-05-10T01:03:04.297Z,1008.46
2023-05-10T01:04:04.177Z,1008.48
2023-05-10T01:05:04.296Z,1008.43
2023-05-10T01:06:04.188Z,1008.46
2023-05-10T01:07:04.168Z,1008.43
2023-05-10T01:08:04.161Z,1008.41
2023-05-10T01:09:04.158Z,1008.41
2023-05-10T01:10:04.163Z,1008.42
2023-05-10T01:11:04.164Z,1008.38
2023-05-10T01:12:04.254Z,1008.41
2023-05-10T01:13:04.270Z,1008.38
2023-05-10T01:14:04.154Z,1008.37
2023-05-10T01:15:04.160Z,1008.32
2023-05-10T01:16:04.288Z,1008.34
2023-05-10T01:17:04.160Z,1008.34
2023-05-10T01:18:04.220Z,1008.32
2023-05-10T01:19:04.166Z,1008.33
2023-05-10T01:20:04.163Z,1008.35
2023-05-10T01:21:04.158Z,1008.31
2023-05-10T01:22:04.190Z,1008.32
2023-05-10T01:23:04.156Z,1008.29
2023-05-10T01:24:04.154Z,1008.31
2023-05-10T01:25:04.157Z,1008.28
2023-05-10T01:26:04.154Z,1008.26
2023-05-10T01:27:04.162Z,1008.24
2023-05-10T01:28:04.150Z,1008.27
2023-05-10T01:29:04.166Z,1008.25
2023-05-10T01:30:14.673Z,1008.22
2023-05-10T01:31:04.177Z,1008.27
2023-05-10T01:32:04.174Z,1008.17
2023-05-10T01:33:04.200Z,1008.21
2023-05-10T01:34:04.150Z,1008.22
2023-05-10T01:35:04.158Z,1008.21
2023-05-10T01:36:04.154Z,1008.19
2023-05-10T01:37:04.150Z,1008.18
2023-05-10T01:38:04.172Z,1008.17
2023-05-10T01:39:04.139Z,1008.17
2023-05-10T01:40:04.141Z,1008.20
2023-05-10T01:41:04.148Z,1008.21
2023-05-10T01:42:04.141Z,1008.19
2023-05-10T01:43:04.141Z,1008.13
2023-05-10T01:44:04.139Z,1008.08
2023-05-10T01:45:04.153Z,1008.15
2023-05-10T01:46:04.143Z,1008.14
2023-05-10T01:47:04.214Z,1008.10
2023-05-10T01:48:04.159Z,1008.12
2023-05-10T01:49:04.134Z,1008.12
2023-05-10T01:50:04.146Z,1008.11
2023-05-10T01:51:04.137Z,1008.11
2023-05-10T01:52:04.136Z,1008.07
2023-05-10T01:53:04.129Z,1008.07
2023-05-10T01:54:04.167Z,1008.08
2023-05-10T01:55:04.134Z,1008.11
2023-05-10T01:56:04.130Z,1008.12
2023-05-10T01:57:04.139Z,1008.11
2023-05-10T01:58:04.140Z,1008.12
2023-05-10T01:59:04.140Z,1008.10
2023-05-10T02:00:04.144Z,1008.09
2023-05-10T02:01:04.147Z,1008.05
2023-05-10T02:02:04.140Z,1008.11
2023-05-10T02:03:04.220Z,1008.10
2023-05-10T02:04:04.205Z,1008.10
2023-05-10T02:05:04.130Z,1008.06
2023-05-10T02:06:04.119Z,1008.09
2023-05-10T02:07:04.120Z,1008.11
2023-05-10T02:08:04.124Z,1008.09
2023-05-10T02:09:04.126Z,1008.10
2023-05-10T02:10:04.139Z,1008.11
2023-05-10T02:11:04.130Z,1008.08
2023-05-10T02:12:04.121Z,1008.08
2023-05-10T02:13:04.211Z,1008.11
2023-05-10T02:14:04.117Z,1008.07
2023-05-10T02:15:04.116Z,1008.05
2023-05-10T02:16:04.112Z,1008.06
2023-05-10T02:17:04.187Z,1008.10
2023-05-10T02:18:04.129Z,1008.05
2023-05-10T02:19:04.118Z,1008.00
2023-05-10T02:20:04.113Z,1008.04
2023-05-10T02:21:04.122Z,1008.03
2023-05-10T02:22:04.158Z,1007.99
2023-05-10T02:23:04.136Z,1007.99
2023-05-10T02:24:04.128Z,1008.00
2023-05-10T02:25:04.107Z,1008.03
2023-05-10T02:26:04.251Z,1008.01
2023-05-10T02:27:04.113Z,1008.01
2023-05-10T02:28:04.107Z,1007.99
2023-05-10T02:29:04.124Z,1008.00
2023-05-10T02:30:04.104Z,1008.03
2023-05-10T02:31:04.107Z,1007.98
2023-05-10T02:32:04.155Z,1008.02
2023-05-10T02:33:04.205Z,1008.00
2023-05-10T02:34:04.102Z,1007.98
2023-05-10T02:35:04.097Z,1007.98
2023-05-10T02:36:04.110Z,1007.96
2023-05-10T02:37:04.105Z,1008.03
2023-05-10T02:38:04.100Z,1008.02
2023-05-10T02:39:04.108Z,1008.00
2023-05-10T02:40:04.097Z,1007.96
2023-05-10T02:41:04.093Z,1008.00
2023-05-10T02:42:04.122Z,1008.03
2023-05-10T02:43:04.095Z,1007.99
2023-05-10T02:44:04.092Z,1007.95
2023-05-10T02:45:04.099Z,1007.90
2023-05-10T02:46:04.103Z,1007.92
2023-05-10T02:47:04.092Z,1007.97
2023-05-10T02:48:04.120Z,1007.98
2023-05-10T02:49:04.106Z,1007.96
2023-05-10T02:50:04.084Z,1007.93
2023-05-10T02:51:04.084Z,1007.93
2023-05-10T02:52:04.092Z,1007.97
2023-05-10T02:53:04.144Z,1007.95
2023-05-10T02:54:04.089Z,1007.98
2023-05-10T02:55:04.104Z,1007.99
2023-05-10T02:56:04.082Z,1007.90
2023-05-10T02:57:04.084Z,1007.94
2023-05-10T02:58:04.111Z,1007.92
2023-05-10T02:59:04.075Z,1007.95
2023-05-10T03:00:04.101Z,1007.94
2023-05-10T03:01:04.089Z,1007.93
2023-05-10T03:02:04.079Z,1007.96
2023-05-10T03:03:04.124Z,1007.93
2023-05-10T03:04:04.094Z,1007.97
2023-05-10T03:05:04.131Z,1007.91
2023-05-10T03:06:04.071Z,1007.92
2023-05-10T03:07:04.077Z,1007.95
2023-05-10T03:08:04.078Z,1007.95
2023-05-10T03:09:04.069Z,1007.91
2023-05-10T03:10:04.084Z,1007.90
2023-05-10T03:11:04.065Z,1007.92
2023-05-10T03:12:04.090Z,1007.91
2023-05-10T03:13:04.088Z,1007.90
2023-05-10T03:14:04.091Z,1007.89
2023-05-10T03:15:04.069Z,1007.91
2023-05-10T03:16:04.153Z,1007.89
2023-05-10T03:17:04.070Z,1007.88
2023-05-10T03:18:04.118Z,1007.89
2023-05-10T03:19:04.056Z,1007.91
2023-05-10T03:20:04.066Z,1007.88
2023-05-10T03:21:04.086Z,1007.90
2023-05-10T03:22:04.061Z,1007.89
2023-05-10T03:23:04.061Z,1007.87
2023-05-10T03:24:04.064Z,1007.88
2023-05-10T03:25:04.059Z,1007.88
2023-05-10T03:26:04.056Z,1007.82
2023-05-10T03:27:04.049Z,1007.83
2023-05-10T03:28:04.062Z,1007.82
2023-05-10T03:29:04.049Z,1007.84
2023-05-10T03:30:04.132Z,1007.82
2023-05-10T03:31:04.062Z,1007.83
2023-05-10T03:32:04.048Z,1007.83
2023-05-10T03:33:04.103Z,1007.84
2023-05-10T03:34:04.051Z,1007.80
2023-05-10T03:35:04.055Z,1007.78
2023-05-10T03:36:04.045Z,1007.80
2023-05-10T03:37:04.041Z,1007.80
2023-05-10T03:38:04.046Z,1007.79
2023-05-10T03:39:04.041Z,1007.82
2023-05-10T03:40:04.043Z,1007.81
2023-05-10T03:41:04.041Z,1007.78
2023-05-10T03:42:04.042Z,1007.80
2023-05-10T03:43:04.040Z,1007.74
2023-05-10T03:44:04.039Z,1007.75
2023-05-10T03:45:04.028Z,1007.79
2023-05-10T03:46:04.079Z,1007.79
2023-05-10T03:47:04.113Z,1007.82
2023-05-10T03:48:04.080Z,1007.80
2023-05-10T03:49:04.029Z,1007.77
2023-05-10T03:50:04.031Z,1007.77
2023-05-10T03:51:04.025Z,1007.77
2023-05-10T03:52:04.028Z,1007.77
2023-05-10T03:53:04.031Z,1007.73
2023-05-10T03:54:04.022Z,1007.77
2023-05-10T03:55:04.020Z,1007.77
2023-05-10T03:56:04.052Z,1007.79
2023-05-10T03:57:04.032Z,1007.82
2023-05-10T03:58:04.017Z,1007.81
2023-05-10T03:59:04.026Z,1007.79
2023-05-10T04:00:04.034Z,1007.83
2023-05-10T04:01:04.016Z,1007.81
2023-05-10T04:02:04.139Z,1007.80
2023-05-10T04:03:04.039Z,1007.81
2023-05-10T04:04:04.048Z,1007.74
2023-05-10T04:05:04.036Z,1007.74
2023-05-10T04:06:04.062Z,1007.78
2023-05-10T04:07:04.019Z,1007.79
2023-05-10T04:08:04.012Z,1007.79
2023-05-10T04:09:04.017Z,1007.84
2023-05-10T04:10:04.012Z,1007.82
2023-05-10T04:11:04.003Z,1007.81
2023-05-10T04:12:04.026Z,1007.79
2023-05-10T04:13:04.062Z,1007.78
2023-05-10T04:14:04.009Z,1007.77
2023-05-10T04:15:04.002Z,1007.77
2023-05-10T04:16:04.009Z,1007.73
2023-05-10T04:17:04.092Z,1007.74
2023-05-10T04:18:04.789Z,1007.70
2023-05-10T04:19:04.010Z,1007.72
2023-05-10T04:20:04.007Z,1007.72
2023-05-10T04:21:04.000Z,1007.71
2023-05-10T04:22:03.998Z,1007.71
2023-05-10T04:23:04.004Z,1007.71
2023-05-10T04:24:03.997Z,1007.70
2023-05-10T04:25:03.990Z,1007.74
2023-05-10T04:26:03.985Z,1007.68
2023-05-10T04:27:03.987Z,1007.72
2023-05-10T04:28:04.011Z,1007.74
2023-05-10T04:29:03.986Z,1007.71
2023-05-10T04:30:03.997Z,1007.73
2023-05-10T04:31:04.017Z,1007.75
2023-05-10T04:32:03.991Z,1007.73
2023-05-10T04:33:04.050Z,1007.76
2023-05-10T04:34:04.031Z,1007.77
2023-05-10T04:35:03.978Z,1007.74
2023-05-10T04:36:03.985Z,1007.76
2023-05-10T04:37:03.977Z,1007.76
2023-05-10T04:38:03.987Z,1007.74
2023-05-10T04:39:03.976Z,1007.78
2023-05-10T04:40:03.973Z,1007.76
2023-05-10T04:41:03.973Z,1007.75
2023-05-10T04:42:03.997Z,1007.78
2023-05-10T04:43:03.974Z,1007.72
2023-05-10T04:44:03.972Z,1007.75
2023-05-10T04:45:03.982Z,1007.77
2023-05-10T04:46:04.083Z,1007.74
2023-05-10T04:47:03.968Z,1007.73
2023-05-10T04:48:04.027Z,1007.69
2023-05-10T04:49:03.964Z,1007.72
2023-05-10T04:50:03.991Z,1007.71
2023-05-10T04:51:03.966Z,1007.72
2023-05-10T04:52:03.965Z,1007.71
2023-05-10T04:53:03.967Z,1007.72
2023-05-10T04:54:06.621Z,1007.71
2023-05-10T04:55:03.964Z,1007.75
2023-05-10T04:56:03.964Z,1007.73
2023-05-10T04:57:03.957Z,1007.67
2023-05-10T04:58:03.962Z,1007.75
2023-05-10T04:59:03.954Z,1007.72
2023-05-10T05:00:03.981Z,1007.65
2023-05-10T05:01:03.959Z,1007.66
2023-05-10T05:02:04.003Z,1007.72
2023-05-10T05:03:04.085Z,1007.76
2023-05-10T05:04:03.953Z,1007.73
2023-05-10T05:05:03.949Z,1007.73
2023-05-10T05:06:03.977Z,1007.78
2023-05-10T05:07:03.949Z,1007.76
2023-05-10T05:08:03.952Z,1007.82
2023-05-10T05:09:03.944Z,1007.77
2023-05-10T05:10:03.951Z,1007.74
2023-05-10T05:11:03.958Z,1007.72
2023-05-10T05:12:03.950Z,1007.73
2023-05-10T05:13:03.967Z,1007.73
2023-05-10T05:14:03.947Z,1007.72
2023-05-10T05:15:03.939Z,1007.66
2023-05-10T05:16:03.998Z,1007.65
2023-05-10T05:17:03.937Z,1007.67
2023-05-10T05:18:03.961Z,1007.67
2023-05-10T05:19:03.940Z,1007.64
2023-05-10T05:20:03.942Z,1007.66
2023-05-10T05:21:03.939Z,1007.61
2023-05-10T05:22:03.976Z,1007.62
2023-05-10T05:23:03.948Z,1007.62
2023-05-10T05:24:03.948Z,1007.65
2023-05-10T05:25:03.934Z,1007.60
2023-05-10T05:26:03.943Z,1007.69
2023-05-10T05:27:03.930Z,1007.70
2023-05-10T05:28:03.932Z,1007.67
2023-05-10T05:29:03.951Z,1007.65
2023-05-10T05:30:03.935Z,1007.65
2023-05-10T05:31:03.929Z,1007.65
2023-05-10T05:32:04.015Z,1007.73
2023-05-10T05:33:03.947Z,1007.71
2023-05-10T05:34:03.934Z,1007.67
2023-05-10T05:35:03.925Z,1007.69
2023-05-10T05:36:03.943Z,1007.73
2023-05-10T05:37:03.920Z,1007.70
2023-05-10T05:38:03.954Z,1007.68
2023-05-10T05:39:03.922Z,1007.68
2023-05-10T05:40:03.921Z,1007.67
2023-05-10T05:41:03.920Z,1007.76
2023-05-10T05:42:03.934Z,1007.67
2023-05-10T05:43:03.924Z,1007.68
2023-05-10T05:44:03.921Z,1007.64
2023-05-10T05:45:03.917Z,1007.71
2023-05-10T05:46:03.980Z,1007.67
2023-05-10T05:47:03.921Z,1007.67
2023-05-10T05:48:04.013Z,1007.64
2023-05-10T05:49:03.919Z,1007.66
2023-05-10T05:50:03.929Z,1007.67
2023-05-10T05:51:05.852Z,1007.66
2023-05-10T05:52:03.921Z,1007.65
2023-05-10T05:53:03.912Z,1007.67
2023-05-10T05:54:03.956Z,1007.61
2023-05-10T05:55:03.916Z,1007.67
2023-05-10T05:56:03.915Z,1007.63
2023-05-10T05:57:03.916Z,1007.64
2023-05-10T05:58:03.939Z,1007.64
2023-05-10T05:59:03.915Z,1007.66
2023-05-10T06:00:03.919Z,1007.63
2023-05-10T06:01:03.931Z,1007.55
2023-05-10T06:02:03.954Z,1007.53
2023-05-10T06:03:03.967Z,1007.54
2023-05-10T06:04:04.016Z,1007.59
2023-05-10T06:05:03.912Z,1007.59
2023-05-10T06:06:03.914Z,1007.56
2023-05-10T06:07:03.918Z,1007.62
2023-05-10T06:08:03.911Z,1007.70
2023-05-10T06:09:03.921Z,1007.62
2023-05-10T06:10:03.957Z,1007.63
2023-05-10T06:11:03.914Z,1007.63
2023-05-10T06:12:03.924Z,1007.71
2023-05-10T06:13:04.009Z,1007.72
2023-05-10T06:14:03.917Z,1007.59
2023-05-10T06:15:03.924Z,1007.58
2023-05-10T06:16:03.912Z,1007.65
2023-05-10T06:17:03.975Z,1007.67
2023-05-10T06:18:04.000Z,1007.64
2023-05-10T06:19:03.913Z,1007.67
2023-05-10T06:20:03.916Z,1007.71
2023-05-10T06:21:03.914Z,1007.65
2023-05-10T06:22:03.912Z,1007.58
2023-05-10T06:23:03.921Z,1007.58
2023-05-10T06:24:03.945Z,1007.57
2023-05-10T06:25:03.917Z,1007.56
2023-05-10T06:26:03.934Z,1007.54
2023-05-10T06:27:03.905Z,1007.59
2023-05-10T06:28:03.946Z,1007.65
2023-05-10T06:29:03.906Z,1007.67
2023-05-10T06:30:12.442Z,1007.77
2023-05-10T06:31:03.912Z,1007.60
2023-05-10T06:32:03.910Z,1007.70
2023-05-10T06:33:03.967Z,1007.74
2023-05-10T06:34:03.915Z,1007.65
2023-05-10T06:35:03.909Z,1007.67
2023-05-10T06:36:03.923Z,1007.68
2023-05-10T06:37:03.929Z,1007.72
2023-05-10T06:38:03.913Z,1007.67
2023-05-10T06:39:03.914Z,1007.63
2023-05-10T06:40:03.910Z,1007.67
2023-05-10T06:41:03.909Z,1007.58
2023-05-10T06:42:04.004Z,1007.70
2023-05-10T06:43:03.915Z,1007.71
2023-05-10T06:44:03.926Z,1007.71
2023-05-10T06:45:03.914Z,1007.60
2023-05-10T06:46:03.958Z,1007.60
2023-05-10T06:47:03.915Z,1007.76
2023-05-10T06:48:03.946Z,1007.67
2023-05-10T06:49:03.912Z,1007.76
2023-05-10T06:50:03.928Z,1007.70
2023-05-10T06:51:03.919Z,1007.66
2023-05-10T06:52:03.916Z,1007.77
2023-05-10T06:53:03.921Z,1007.73
2023-05-10T06:54:03.926Z,1007.76
2023-05-10T06:55:03.915Z,1007.67
2023-05-10T06:56:04.519Z,1007.65
2023-05-10T06:57:05.807Z,1007.76
2023-05-10T06:58:03.993Z,1007.65
2023-05-10T06:59:03.954Z,1007.72
2023-05-10T07:00:03.972Z,1007.79
2023-05-10T07:01:04.027Z,1007.72
2023-05-10T07:02:03.979Z,1007.73
2023-05-10T07:03:04.023Z,1007.67
2023-05-10T07:04:03.919Z,1007.67
2023-05-10T07:05:03.920Z,1007.70
2023-05-10T07:06:03.928Z,1007.75
2023-05-10T07:07:03.923Z,1007.75
2023-05-10T07:08:03.947Z,1007.76
2023-05-10T07:09:03.928Z,1007.69
2023-05-10T07:10:03.929Z,1007.80
2023-05-10T07:11:03.926Z,1007.77
2023-05-10T07:12:03.966Z,1007.70
2023-05-10T07:13:04.013Z,1007.72
2023-05-10T07:14:03.942Z,1007.71
2023-05-10T07:15:03.930Z,1007.65
2023-05-10T07:16:03.950Z,1007.59
2023-05-10T07:17:03.972Z,1007.63
2023-05-10T07:18:04.111Z,1007.57
2023-05-10T07:19:03.931Z,1007.61
2023-05-10T07:20:03.936Z,1007.63
2023-05-10T07:21:03.963Z,1007.68
2023-05-10T07:22:03.958Z,1007.66
2023-05-10T07:23:03.930Z,1007.62
2023-05-10T07:24:03.938Z,1007.57
2023-05-10T07:25:03.934Z,1007.64
2023-05-10T07:26:03.933Z,1007.66
2023-05-10T07:27:03.945Z,1007.61
2023-05-10T07:28:03.952Z,1007.69
2023-05-10T07:29:03.936Z,1007.66
2023-05-10T07:30:03.957Z,1007.71
2023-05-10T07:31:03.976Z,1007.63
2023-05-10T07:32:03.977Z,1007.69
2023-05-10T07:33:03.985Z,1007.73
2023-05-10T07:34:03.943Z,1007.68
2023-05-10T07:35:03.936Z,1009.19
2023-05-10T07:36:03.941Z,1013.23
2023-05-10T07:37:03.952Z,1018.46
2023-05-10T07:38:03.979Z,1022.96
2023-05-10T07:39:03.942Z,1023.34
2023-05-10T07:40:03.961Z,1023.47
2023-05-10T07:41:03.950Z,1023.16
2023-05-10T07:42:03.952Z,1024.26
2023-05-10T07:43:03.955Z,1025.55
2023-05-10T07:44:03.948Z,1026.17
2023-05-10T07:45:03.996Z,1025.88
2023-05-10T07:46:04.012Z,1025.49
2023-05-10T07:47:03.959Z,1026.30
2023-05-10T07:48:03.977Z,1026.85
2023-05-10T07:49:04.003Z,1026.44
2023-05-10T07:50:03.989Z,1026.29
2023-05-10T07:51:03.965Z,1025.96
2023-05-10T07:52:03.970Z,1026.19
2023-05-10T07:53:03.998Z,1026.74
2023-05-10T07:54:03.991Z,1026.70
2023-05-10T07:55:03.972Z,1026.23
2023-05-10T07:56:03.977Z,1025.45
2023-05-10T07:57:03.999Z,1025.36
2023-05-10T07:58:03.986Z,1025.38
2023-05-10T07:59:03.986Z,1025.20
2023-05-10T08:00:03.998Z,1024.17
2023-05-10T08:01:03.999Z,1023.53
2023-05-10T08:02:04.096Z,1023.99
2023-05-10T08:03:04.179Z,1023.61
2023-05-10T08:04:04.132Z,1022.90
2023-05-10T08:05:04.034Z,1021.61
2023-05-10T08:06:04.016Z,1019.81
2023-05-10T08:07:04.032Z,1019.38
2023-05-10T08:08:04.025Z,1019.71
2023-05-10T08:09:04.044Z,1020.11
2023-05-10T08:10:04.040Z,1020.48
2023-05-10T08:11:04.036Z,1020.71
2023-05-10T08:12:04.053Z,1020.29
2023-05-10T08:13:04.059Z,1017.45
2023-05-10T08:14:04.077Z,1016.34
2023-05-10T08:15:04.071Z,1016.17
2023-05-10T08:16:04.168Z,1016.06
2023-05-10T08:17:04.090Z,1016.10
2023-05-10T08:18:04.179Z,1015.24
2023-05-10T08:19:04.219Z,1014.41
2023-05-10T08:20:04.122Z,1014.21
2023-05-10T08:21:04.110Z,1014.56
2023-05-10T08:22:04.143Z,1014.62
2023-05-10T08:23:04.134Z,1014.28
2023-05-10T08:24:04.136Z,1013.78
2023-05-10T08:25:04.149Z,1013.25
2023-05-10T08:26:04.161Z,1012.99
2023-05-10T08:27:04.164Z,1012.77
2023-05-10T08:28:04.175Z,1012.20
2023-05-10T08:29:04.199Z,1012.10
2023-05-10T08:30:04.196Z,1011.80
2023-05-10T08:31:04.220Z,1011.49
2023-05-10T08:32:04.206Z,1011.22
2023-05-10T08:33:04.310Z,1010.90
2023-05-10T08:34:04.399Z,1010.74
2023-05-10T08:35:04.249Z,1010.64
2023-05-10T08:36:04.253Z,1010.42
2023-05-10T08:37:04.290Z,1010.31
2023-05-10T08:38:04.283Z,1010.20
2023-05-10T08:39:04.286Z,1010.04
2023-05-10T08:40:04.299Z,1009.98
2023-05-10T08:41:04.307Z,1009.99
2023-05-10T08:42:04.325Z,1009.90
2023-05-10T08:43:04.334Z,1009.83
2023-05-10T08:44:04.346Z,1009.76
2023-05-10T08:45:04.356Z,1009.77
2023-05-10T08:46:04.370Z,1009.65
2023-05-10T08:47:04.473Z,1009.64
2023-05-10T08:48:04.440Z,1009.62
2023-05-10T08:49:04.416Z,1009.60
2023-05-10T08:50:04.453Z,1009.49
2023-05-10T08:51:04.444Z,1009.47
2023-05-10T08:52:04.462Z,1009.46
2023-05-10T08:53:04.465Z,1009.43
2023-05-10T08:54:04.482Z,1009.39
2023-05-10T08:55:04.498Z,1009.46
2023-05-10T08:56:04.509Z,1009.37
2023-05-10T08:57:04.526Z,1009.34
2023-05-10T08:58:04.536Z,1009.32
2023-05-10T08:59:04.549Z,1009.27
2023-05-10T09:00:04.555Z,1009.39
2023-05-10T09:01:04.660Z,1009.28
2023-05-10T09:02:04.592Z,1009.23
2023-05-10T09:03:04.743Z,1009.25
2023-05-10T09:04:04.667Z,1009.28
2023-05-10T09:05:04.727Z,1009.27
2023-05-10T09:06:04.690Z,1009.15
2023-05-10T09:07:04.684Z,1009.11
2023-05-10T09:08:04.690Z,1009.11
2023-05-10T09:09:04.701Z,1009.08
2023-05-10T09:10:04.721Z,1009.10
2023-05-10T09:11:04.741Z,1009.07
2023-05-10T09:12:04.752Z,1009.04
2023-05-10T09:13:04.782Z,1009.11
2023-05-10T09:14:04.797Z,1009.03
2023-05-10T09:15:04.966Z,1008.93
2023-05-10T09:16:13.899Z,1008.92
2023-05-10T09:17:04.933Z,1008.82
2023-05-10T09:18:04.876Z,1008.91
2023-05-10T09:19:04.963Z,1008.85
2023-05-10T09:20:05.284Z,1008.86
2023-05-10T09:21:04.898Z,1008.92
2023-05-10T09:22:04.949Z,1008.96
2023-05-10T09:23:04.940Z,1008.93
2023-05-10T09:24:04.946Z,1008.97
2023-05-10T09:25:04.969Z,1008.92
2023-05-10T09:26:04.980Z,1008.89
2023-05-10T09:27:05.010Z,1008.90
2023-05-10T09:28:05.018Z,1009.02
2023-05-10T09:29:05.040Z,1008.95
2023-05-10T09:30:05.057Z,1008.97
2023-05-10T09:31:05.150Z,1009.01
2023-05-10T09:32:05.109Z,1008.94
2023-05-10T09:33:05.153Z,1008.93
2023-05-10T09:34:05.126Z,1008.95
2023-05-10T09:35:05.159Z,1009.01
2023-05-10T09:36:05.161Z,1009.03
2023-05-10T09:37:05.195Z,1009.06
2023-05-10T09:38:05.301Z,1009.29
2023-05-10T09:39:05.230Z,1009.22
2023-05-10T09:40:05.247Z,1009.15
2023-05-10T09:41:05.264Z,1009.22
2023-05-10T09:42:05.271Z,1009.41
2023-05-10T09:43:05.334Z,1009.27
2023-05-10T09:44:05.323Z,1009.26
2023-05-10T09:45:05.342Z,1009.35
2023-05-10T09:46:05.370Z,1009.37
2023-05-10T09:47:05.380Z,1009.29
2023-05-10T09:48:05.426Z,1009.48
2023-05-10T09:49:05.418Z,1009.38
2023-05-10T09:50:05.448Z,1009.43
2023-05-10T09:51:05.457Z,1009.55
2023-05-10T09:52:05.475Z,1009.59
2023-05-10T09:53:05.504Z,1009.54
2023-05-10T09:54:05.545Z,1009.66
2023-05-10T09:55:05.540Z,1009.66
2023-05-10T09:56:05.563Z,1009.58
2023-05-10T09:57:05.583Z,1009.64
2023-05-10T09:58:05.596Z,1009.64
2023-05-10T09:59:05.617Z,1009.71
2023-05-10T10:00:05.641Z,1009.74
2023-05-10T10:01:05.682Z,1009.85
2023-05-10T10:02:05.946Z,1009.79
2023-05-10T10:03:05.844Z,1009.82
2023-05-10T10:04:05.721Z,1009.81
2023-05-10T10:05:05.814Z,1009.77
2023-05-10T10:06:06.809Z,1010.09
2023-05-10T10:07:05.802Z,1010.02
2023-05-10T10:08:05.822Z,1010.20
2023-05-10T10:09:05.843Z,1010.22
2023-05-10T10:10:05.880Z,1010.21
2023-05-10T10:11:05.893Z,1010.42
2023-05-10T10:12:05.899Z,1010.52
2023-05-10T10:13:05.932Z,1010.64
2023-05-10T10:14:05.972Z,1010.88
2023-05-10T10:15:05.957Z,1010.91
2023-05-10T10:16:05.993Z,1010.88
2023-05-10T10:17:08.744Z,1010.91
2023-05-10T10:18:06.069Z,1010.83
2023-05-10T10:19:06.085Z,1010.69
2023-05-10T10:20:06.091Z,1010.77
2023-05-10T10:21:06.174Z,1010.85
2023-05-10T10:22:06.112Z,1010.71
2023-05-10T10:23:06.128Z,1010.73
2023-05-10T10:24:06.159Z,1010.63
2023-05-10T10:25:06.180Z,1010.58
2023-05-10T10:26:06.212Z,1010.60
2023-05-10T10:27:06.216Z,1010.52
2023-05-10T10:28:06.250Z,1010.53
2023-05-10T10:29:06.273Z,1010.50
2023-05-10T10:30:06.275Z,1010.45
2023-05-10T10:31:06.329Z,1010.42
2023-05-10T10:32:06.325Z,1010.28
2023-05-10T10:33:13.579Z,1010.28
2023-05-10T10:34:06.368Z,1010.31
2023-05-10T10:35:06.397Z,1010.28
2023-05-10T10:36:06.409Z,1010.24
2023-05-10T10:37:06.446Z,1010.17
2023-05-10T10:38:06.458Z,1010.28
2023-05-10T10:39:06.491Z,1010.26
2023-05-10T10:40:06.502Z,1010.01
2023-05-10T10:41:06.537Z,1010.01
2023-05-10T10:42:06.587Z,1010.08
2023-05-10T10:43:06.570Z,1010.03
2023-05-10T10:44:06.591Z,1010.02
2023-05-10T10:45:06.623Z,1010.06
2023-05-10T10:46:06.640Z,1010.12
2023-05-10T10:47:06.732Z,1009.97
2023-05-10T10:48:06.692Z,1010.10
2023-05-10T10:49:06.708Z,1010.08
2023-05-10T10:50:06.733Z,1009.94
2023-05-10T10:51:06.756Z,1009.89
2023-05-10T10:52:06.778Z,1009.89
2023-05-10T10:53:06.839Z,1009.83
2023-05-10T10:54:06.824Z,1009.73
2023-05-10T10:55:06.846Z,1009.73
2023-05-10T10:56:06.870Z,1009.56
2023-05-10T10:57:06.890Z,1009.46
2023-05-10T10:58:06.944Z,1009.40
2023-05-10T10:59:06.944Z,1009.42
2023-05-10T11:00:06.958Z,1009.45
2023-05-10T11:01:07.017Z,1009.27
2023-05-10T11:02:07.010Z,1009.18
2023-05-10T11:03:07.104Z,1009.12
2023-05-10T11:04:07.107Z,1009.06
2023-05-10T11:05:07.089Z,1009.06
2023-05-10T11:06:07.109Z,1009.09
2023-05-10T11:07:07.130Z,1009.02
2023-05-10T11:08:07.160Z,1009.04
2023-05-10T11:09:07.206Z,1008.96
2023-05-10T11:10:07.207Z,1008.96
2023-05-10T11:11:07.239Z,1008.89
2023-05-10T11:12:07.252Z,1008.90
2023-05-10T11:13:07.288Z,1009.05
2023-05-10T11:14:07.379Z,1009.00
2023-05-10T11:15:07.342Z,1008.94
2023-05-10T11:16:07.523Z,1008.88
2023-05-10T11:17:07.532Z,1008.93
2023-05-10T11:18:07.477Z,1008.86
2023-05-10T11:19:07.547Z,1008.83
2023-05-10T11:20:07.456Z,1008.79
2023-05-10T11:21:07.486Z,1008.82
2023-05-10T11:22:07.506Z,1008.76
2023-05-10T11:23:07.533Z,1008.73
2023-05-10T11:24:07.562Z,1008.72
2023-05-10T11:25:07.587Z,1008.78
2023-05-10T11:26:07.616Z,1008.74
2023-05-10T11:27:07.638Z,1008.74
2023-05-10T11:28:07.657Z,1008.73
2023-05-10T11:29:07.685Z,1008.67
2023-05-10T11:30:07.734Z,1008.64
2023-05-10T11:31:07.799Z,1008.67
2023-05-10T11:32:07.756Z,1008.65
2023-05-10T11:33:07.830Z,1008.54
2023-05-10T11:34:07.814Z,1008.62
2023-05-10T11:35:07.837Z,1008.72
2023-05-10T11:36:07.865Z,1008.74
2023-05-10T11:37:07.882Z,1008.60
2023-05-10T11:38:07.913Z,1008.60
2023-05-10T11:39:07.939Z,1008.56
2023-05-10T11:40:07.979Z,1008.63
2023-05-10T11:41:07.993Z,1008.56
2023-05-10T11:42:08.015Z,1008.55
2023-05-10T11:43:08.042Z,1008.50
2023-05-10T11:44:08.064Z,1008.47
2023-05-10T11:45:08.102Z,1008.52
2023-05-10T11:46:08.259Z,1008.56
2023-05-10T11:47:08.140Z,1008.52
2023-05-10T11:48:08.245Z,1008.48
2023-05-10T11:49:08.192Z,1008.50
2023-05-10T11:50:08.225Z,1008.50
2023-05-10T11:51:08.248Z,1008.51
2023-05-10T11:52:08.290Z,1008.54
2023-05-10T11:53:08.296Z,1008.51
2023-05-10T11:54:08.330Z,1008.40
2023-05-10T11:55:08.352Z,1008.39
2023-05-10T11:56:08.378Z,1008.38
2023-05-10T11:57:08.409Z,1008.42
2023-05-10T11:58:08.428Z,1008.34
2023-05-10T11:59:08.452Z,1008.36
2023-05-10T12:00:08.481Z,1008.36
2023-05-10T12:01:08.522Z,1008.42
2023-05-10T12:02:08.559Z,1008.42
2023-05-10T12:03:08.704Z,1008.42
2023-05-10T12:04:08.812Z,1008.31
2023-05-10T12:05:08.625Z,1008.51